createdAt,value
2018-09-02T00:02:12.637Z,94.05
2018-09-02T00:04:41.811Z,93.65
2018-09-02T00:07:10.350Z,93.64
2018-09-02T00:09:39.303Z,93.85
2018-09-02T00:12:10.053Z,94.80
2018-09-02T00:14:39.550Z,95.18
2018-09-02T00:17:08.136Z,95.07
2018-09-02T00:19:38.023Z,95.95
2018-09-02T00:22:06.907Z,95.95
2018-09-02T00:24:35.586Z,96.38
2018-09-02T00:27:05.807Z,96.46
2018-09-02T00:29:35.126Z,95.82
2018-09-02T00:32:04.371Z,96.16
2018-09-02T00:34:33.027Z,96.16
2018-09-02T00:37:03.272Z,96.19
2018-09-02T00:39:31.786Z,96.35
2018-09-02T00:42:00.533Z,96.14
2018-09-02T00:44:29.341Z,95.80
2018-09-02T00:46:58.893Z,96.03
2018-09-02T00:49:27.637Z,96.42
2018-09-02T00:51:56.986Z,96.87
2018-09-02T00:54:25.903Z,97.26
2018-09-02T00:56:54.603Z,97.93
2018-09-02T00:59:23.132Z,98.05
2018-09-02T01:01:53.282Z,98.09
2018-09-02T01:04:21.997Z,97.91
2018-09-02T01:06:51.971Z,97.91
2018-09-02T01:09:20.626Z,98.53
2018-09-02T01:11:49.354Z,98.87
2018-09-02T01:14:19.023Z,98.80
2018-09-02T01:16:48.341Z,99.44
2018-09-02T01:19:17.068Z,98.90
2018-09-02T01:21:47.968Z,98.93
2018-09-02T01:24:16.551Z,99.01
2018-09-02T01:26:45.190Z,99.12
2018-09-02T01:29:14.418Z,99.61
2018-09-02T01:31:43.126Z,99.67
2018-09-02T01:34:11.807Z,100.00
2018-09-02T01:36:40.683Z,99.87
2018-09-02T01:39:09.548Z,99.73
2018-09-02T01:41:38.697Z,99.92
2018-09-02T01:44:07.344Z,100.00
2018-09-02T01:46:36.860Z,100.00
2018-09-02T01:49:06.337Z,100.00
2018-09-02T01:51:34.987Z,100.00
2018-09-02T01:54:03.647Z,100.00
2018-09-02T01:56:33.095Z,100.00
2018-09-02T01:59:05.036Z,100.00
2018-09-02T02:01:35.791Z,100.00
2018-09-02T02:04:05.003Z,100.00
2018-09-02T02:06:33.816Z,100.00
2018-09-02T02:09:02.558Z,100.00
2018-09-02T02:11:31.368Z,100.00
2018-09-02T02:14:01.352Z,100.00
2018-09-02T02:16:30.634Z,100.00
2018-09-02T02:18:59.868Z,100.00
2018-09-02T02:21:28.576Z,100.00
2018-09-02T02:23:57.282Z,100.00
2018-09-02T02:26:26.643Z,100.00
2018-09-02T02:28:55.578Z,100.00
2018-09-02T02:31:24.462Z,100.00
2018-09-02T02:33:53.057Z,100.00
2018-09-02T02:36:22.421Z,100.00
2018-09-02T02:38:51.186Z,100.00
2018-09-02T02:41:20.509Z,100.00
2018-09-02T02:43:50.194Z,100.00
2018-09-02T02:46:19.243Z,100.00
2018-09-02T02:48:48.237Z,100.00
2018-09-02T02:51:16.898Z,100.00
2018-09-02T02:53:46.111Z,100.00
2018-09-02T02:56:15.144Z,100.00
2018-09-02T02:58:45.008Z,100.00
2018-09-02T03:01:15.582Z,100.00
2018-09-02T03:03:45.987Z,100.00
2018-09-02T03:06:15.736Z,100.00
2018-09-02T03:08:44.396Z,100.00
2018-09-02T03:11:13.074Z,100.00
2018-09-02T03:13:42.252Z,100.00
2018-09-02T03:16:10.999Z,100.00
2018-09-02T03:18:40.238Z,100.00
2018-09-02T03:21:09.427Z,100.00
2018-09-02T03:23:38.506Z,100.00
2018-09-02T03:26:08.238Z,100.00
2018-09-02T03:28:37.061Z,100.00
2018-09-02T03:31:08.742Z,100.00
2018-09-02T03:33:37.353Z,100.00
2018-09-02T03:36:07.192Z,100.00
2018-09-02T03:38:35.808Z,100.00
2018-09-02T03:41:04.697Z,100.00
2018-09-02T03:43:34.109Z,100.00
2018-09-02T03:46:03.589Z,100.00
2018-09-02T03:48:32.890Z,100.00
2018-09-02T03:51:02.624Z,100.00
2018-09-02T03:53:32.094Z,100.00
2018-09-02T03:57:25.365Z,100.00
2018-09-02T03:59:54.141Z,100.00
2018-09-02T04:02:22.984Z,100.00
2018-09-02T04:04:51.699Z,100.00
2018-09-02T04:07:20.392Z,100.00
2018-09-02T04:09:49.328Z,100.00
2018-09-02T04:12:18.818Z,100.00
2018-09-02T04:14:47.489Z,100.00
2018-09-02T04:17:16.202Z,100.00
2018-09-02T04:19:44.993Z,100.00
2018-09-02T04:22:13.644Z,100.00
2018-09-02T04:24:42.837Z,100.00
2018-09-02T04:27:11.417Z,100.00
2018-09-02T04:29:40.117Z,100.00
2018-09-02T04:32:09.762Z,100.00
2018-09-02T04:34:39.619Z,100.00
2018-09-02T04:37:09.402Z,100.00
2018-09-02T04:39:38.113Z,100.00
2018-09-02T04:42:08.280Z,100.00
2018-09-02T04:44:37.508Z,100.00
2018-09-02T04:47:06.125Z,100.00
2018-09-02T04:49:35.008Z,100.00
2018-09-02T04:52:03.814Z,100.00
2018-09-02T04:54:33.815Z,100.00
2018-09-02T04:57:02.716Z,100.00
2018-09-02T04:59:31.561Z,100.00
2018-09-02T05:02:00.287Z,100.00
2018-09-02T05:04:29.322Z,100.00
2018-09-02T05:06:59.105Z,100.00
2018-09-02T05:09:27.694Z,100.00
2018-09-02T05:11:56.683Z,100.00
2018-09-02T05:14:25.273Z,100.00
2018-09-02T05:16:54.624Z,100.00
2018-09-02T05:19:24.048Z,100.00
2018-09-02T05:21:53.735Z,100.00
2018-09-02T05:24:22.275Z,100.00
2018-09-02T05:26:51.398Z,100.00
2018-09-02T05:29:20.713Z,100.00
2018-09-02T05:31:50.604Z,100.00
2018-09-02T05:34:19.218Z,100.00
2018-09-02T05:36:48.495Z,100.00
2018-09-02T05:39:17.394Z,100.00
2018-09-02T05:41:47.814Z,100.00
2018-09-02T05:44:16.783Z,100.00
2018-09-02T05:46:45.648Z,100.00
2018-09-02T05:49:14.293Z,100.00
2018-09-02T05:51:43.838Z,100.00
2018-09-02T05:54:13.720Z,100.00
2018-09-02T05:56:42.589Z,100.00
2018-09-02T05:59:12.108Z,100.00
2018-09-02T06:01:41.623Z,100.00
2018-09-02T06:04:10.428Z,100.00
2018-09-02T06:06:38.966Z,100.00
2018-09-02T06:09:09.913Z,100.00
2018-09-02T06:11:39.393Z,100.00
2018-09-02T06:14:09.461Z,100.00
2018-09-02T06:16:39.142Z,99.76
2018-09-02T06:19:07.914Z,98.81
2018-09-02T06:21:36.614Z,98.44
2018-09-02T06:24:05.438Z,98.59
2018-09-02T06:26:35.593Z,97.00
2018-09-02T06:29:06.054Z,96.20
2018-09-02T06:31:35.003Z,95.22
2018-09-02T06:34:03.877Z,95.54
2018-09-02T06:36:32.605Z,95.87
2018-09-02T06:39:01.753Z,95.46
2018-09-02T06:41:30.541Z,95.68
2018-09-02T06:43:59.196Z,94.88
2018-09-02T06:46:28.118Z,94.72
2018-09-02T06:48:57.704Z,93.57
2018-09-02T06:51:26.280Z,92.60
2018-09-02T06:53:55.216Z,92.53
2018-09-02T06:56:23.753Z,91.96
2018-09-02T06:58:52.721Z,90.99
2018-09-02T07:01:21.860Z,91.96
2018-09-02T07:03:51.629Z,92.31
2018-09-02T07:06:20.255Z,92.64
2018-09-02T07:08:49.056Z,93.74
2018-09-02T07:11:17.799Z,94.14
2018-09-02T07:13:46.914Z,93.55
2018-09-02T07:16:16.188Z,93.36
2018-09-02T07:18:45.620Z,93.29
2018-09-02T07:21:17.571Z,93.55
2018-09-02T07:23:46.532Z,93.91
2018-09-02T07:26:16.008Z,93.82
2018-09-02T07:28:44.805Z,92.76
2018-09-02T07:31:13.526Z,92.39
2018-09-02T07:33:42.660Z,92.00
2018-09-02T07:36:11.856Z,89.62
2018-09-02T07:38:41.681Z,91.22
2018-09-02T07:41:10.416Z,90.35
2018-09-02T07:43:39.543Z,90.72
2018-09-02T07:46:08.429Z,90.03
2018-09-02T07:48:37.084Z,89.41
2018-09-02T07:51:06.228Z,89.43
2018-09-02T07:53:36.596Z,88.18
2018-09-02T07:56:05.700Z,88.59
2018-09-02T07:58:35.564Z,88.91
2018-09-02T08:01:06.048Z,89.49
2018-09-02T08:03:35.959Z,90.24
2018-09-02T08:06:04.826Z,89.73
2018-09-02T08:08:33.581Z,87.94
2018-09-02T08:11:03.018Z,88.11
2018-09-02T08:13:31.722Z,87.05
2018-09-02T08:16:00.534Z,86.85
2018-09-02T08:18:29.641Z,87.31
2018-09-02T08:20:58.531Z,87.27
2018-09-02T08:23:28.159Z,87.17
2018-09-02T08:25:57.444Z,86.80
2018-09-02T08:28:26.793Z,86.72
2018-09-02T08:30:56.270Z,86.64
2018-09-02T08:33:25.075Z,87.49
2018-09-02T08:35:53.782Z,86.74
2018-09-02T08:38:22.413Z,85.44
2018-09-02T08:40:51.308Z,86.07
2018-09-02T08:43:19.944Z,86.09
2018-09-02T08:45:49.273Z,86.86
2018-09-02T08:48:18.428Z,87.85
2018-09-02T08:50:48.015Z,87.50
2018-09-02T08:53:16.826Z,86.93
2018-09-02T08:55:45.959Z,86.77
2018-09-02T08:58:15.060Z,86.90
2018-09-02T09:00:44.200Z,86.66
2018-09-02T09:03:13.834Z,86.82
2018-09-02T09:05:43.146Z,87.07
2018-09-02T09:08:12.360Z,87.75
2018-09-02T09:10:42.330Z,87.75
2018-09-02T09:13:11.161Z,87.92
2018-09-02T09:15:39.894Z,87.73
2018-09-02T09:18:09.275Z,88.18
2018-09-02T09:20:38.629Z,86.60
2018-09-02T09:23:07.477Z,86.29
2018-09-02T09:25:36.695Z,85.81
2018-09-02T09:28:06.911Z,85.68
2018-09-02T09:30:36.079Z,85.21
2018-09-02T09:33:05.000Z,85.31
2018-09-02T09:35:35.484Z,86.43
2018-09-02T09:38:04.749Z,85.76
2018-09-02T09:40:33.651Z,85.21
2018-09-02T09:43:03.384Z,84.71
2018-09-02T09:45:32.487Z,84.89
2018-09-02T09:48:01.974Z,84.38
2018-09-02T09:50:30.804Z,83.53
2018-09-02T09:53:00.167Z,83.51
2018-09-02T09:55:29.063Z,82.82
2018-09-02T09:57:58.600Z,83.25
2018-09-02T10:00:33.327Z,83.69
2018-09-02T10:03:03.269Z,83.77
2018-09-02T10:05:32.034Z,84.66
2018-09-02T10:08:01.177Z,84.90
2018-09-02T10:10:30.122Z,84.82
2018-09-02T10:12:59.835Z,85.45
2018-09-02T10:15:29.420Z,85.25
2018-09-02T10:17:58.213Z,85.42
2018-09-02T10:20:28.114Z,84.78
2018-09-02T10:22:57.192Z,84.28
2018-09-02T10:25:25.996Z,83.11
2018-09-02T10:27:54.685Z,84.12
2018-09-02T10:30:24.272Z,83.59
2018-09-02T10:32:53.410Z,84.58
2018-09-02T10:35:22.336Z,84.26
2018-09-02T10:37:51.654Z,85.36
2018-09-02T10:40:21.156Z,84.57
2018-09-02T10:42:50.301Z,84.04
2018-09-02T10:45:20.197Z,84.61
2018-09-02T10:47:49.791Z,84.35
2018-09-02T10:50:19.755Z,85.10
2018-09-02T10:52:48.332Z,85.24
2018-09-02T10:55:17.305Z,85.72
2018-09-02T10:57:46.496Z,85.83
2018-09-02T11:00:15.862Z,86.16
2018-09-02T11:02:44.669Z,86.52
2018-09-02T11:05:13.563Z,87.12
2018-09-02T11:07:43.865Z,86.02
2018-09-02T11:10:13.031Z,87.12
2018-09-02T11:12:42.488Z,87.26
2018-09-02T11:15:11.518Z,87.38
2018-09-02T11:17:41.635Z,87.14
2018-09-02T11:20:11.247Z,87.12
2018-09-02T11:22:41.151Z,86.51
2018-09-02T11:25:10.155Z,86.63
2018-09-02T11:27:39.456Z,86.46
2018-09-02T11:30:08.887Z,87.00
2018-09-02T11:32:39.012Z,87.71
2018-09-02T11:35:09.436Z,87.81
2018-09-02T11:37:38.410Z,88.68
2018-09-02T11:40:07.421Z,88.47
2018-09-02T11:42:36.545Z,88.04
2018-09-02T11:45:05.619Z,88.24
2018-09-02T11:47:34.225Z,88.37
2018-09-02T11:50:04.701Z,88.20
2018-09-02T11:52:33.419Z,88.44
2018-09-02T11:55:02.277Z,89.54
2018-09-02T11:57:31.968Z,89.80
2018-09-02T12:00:00.746Z,89.84
2018-09-02T12:02:30.100Z,90.62
2018-09-02T12:04:59.510Z,89.61
2018-09-02T12:07:28.680Z,88.88
2018-09-02T12:09:57.577Z,88.57
2018-09-02T12:12:26.484Z,88.49
2018-09-02T12:14:56.679Z,88.72
2018-09-02T12:17:25.379Z,88.32
2018-09-02T12:19:55.227Z,88.25
2018-09-02T12:22:24.120Z,88.15
2018-09-02T12:24:53.291Z,88.47
2018-09-02T12:27:22.206Z,88.60
2018-09-02T12:29:51.784Z,88.68
2018-09-02T12:32:21.380Z,87.97
2018-09-02T12:34:50.113Z,88.09
2018-09-02T12:37:18.971Z,87.70
2018-09-02T12:39:47.672Z,88.02
2018-09-02T12:42:17.741Z,87.98
2018-09-02T12:44:47.250Z,88.26
2018-09-02T12:47:17.109Z,88.25
2018-09-02T12:49:46.006Z,88.50
2018-09-02T12:52:14.733Z,88.10
2018-09-02T12:54:43.856Z,88.91
2018-09-02T12:57:13.337Z,89.04
2018-09-02T12:59:41.968Z,88.78
2018-09-02T13:02:10.761Z,88.60
2018-09-02T13:04:39.722Z,88.60
2018-09-02T13:07:08.331Z,89.22
2018-09-02T13:09:38.099Z,89.53
2018-09-02T13:12:07.731Z,90.02
2018-09-02T13:14:36.966Z,90.63
2018-09-02T13:17:05.980Z,90.95
2018-09-02T13:19:35.460Z,91.18
2018-09-02T13:22:04.512Z,91.21
2018-09-02T13:24:34.048Z,91.83
2018-09-02T13:27:03.842Z,91.92
2018-09-02T13:29:32.777Z,91.83
2018-09-02T13:32:01.635Z,93.16
2018-09-02T13:34:30.396Z,92.96
2018-09-02T13:36:59.917Z,92.48
2018-09-02T13:39:28.618Z,92.59
2018-09-02T13:41:57.352Z,92.69
2018-09-02T13:44:26.220Z,92.86
2018-09-02T13:46:55.910Z,92.57
2018-09-02T13:49:24.943Z,91.98
2018-09-02T13:51:54.451Z,92.53
2018-09-02T13:54:24.382Z,92.87
2018-09-02T13:56:54.936Z,93.80
2018-09-02T13:59:24.832Z,92.92
2018-09-02T14:01:55.884Z,93.49
2018-09-02T14:04:24.760Z,93.16
2018-09-02T14:06:55.406Z,93.00
2018-09-02T14:09:24.826Z,93.14
2018-09-02T14:11:53.539Z,93.66
2018-09-02T14:14:22.308Z,94.06
2018-09-02T14:16:51.301Z,94.14
2018-09-02T14:19:20.549Z,93.78
2018-09-02T14:21:50.036Z,94.63
2018-09-02T14:24:19.804Z,94.26
2018-09-02T14:26:49.127Z,94.48
2018-09-02T14:29:18.843Z,94.68
2018-09-02T14:31:49.271Z,94.09
2018-09-02T14:34:18.457Z,93.93
2018-09-02T14:36:48.596Z,94.23
2018-09-02T14:39:18.536Z,94.20
2018-09-02T14:41:47.511Z,94.41
2018-09-02T14:44:16.606Z,94.43
2018-09-02T14:46:46.236Z,95.15
2018-09-02T14:49:16.128Z,95.35
2018-09-02T14:51:45.982Z,95.09
2018-09-02T14:54:15.816Z,95.48
2018-09-02T14:56:45.641Z,95.83
2018-09-02T14:59:14.919Z,95.79
2018-09-02T15:01:44.470Z,96.21
2018-09-02T15:04:13.412Z,96.10
2018-09-02T15:06:42.853Z,95.96
2018-09-02T15:09:14.003Z,95.93
2018-09-02T15:11:43.810Z,95.99
2018-09-02T15:14:14.302Z,96.20
2018-09-02T15:16:43.633Z,95.98
2018-09-02T15:19:12.866Z,95.55
2018-09-02T15:21:42.502Z,95.67
2018-09-02T15:24:11.634Z,95.74
2018-09-02T15:26:41.245Z,96.05
2018-09-02T15:29:10.312Z,95.66
2018-09-02T15:31:39.741Z,96.04
2018-09-02T15:34:10.044Z,96.07
2018-09-02T15:36:39.098Z,95.35
2018-09-02T15:39:09.643Z,95.65
2018-09-02T15:41:40.043Z,95.88
2018-09-02T15:44:10.704Z,96.05
2018-09-02T15:46:39.237Z,95.92
2018-09-02T15:49:08.151Z,96.07
2018-09-02T15:51:39.771Z,95.31
2018-09-02T15:54:09.648Z,95.09
2018-09-02T15:56:40.027Z,95.36
2018-09-02T15:59:08.914Z,95.50
2018-09-02T16:01:38.328Z,96.01
2018-09-02T16:04:08.503Z,95.78
2018-09-02T16:06:38.205Z,95.77
2018-09-02T16:09:10.008Z,95.78
2018-09-02T16:11:39.836Z,96.50
2018-09-02T16:14:09.993Z,96.10
2018-09-02T16:16:40.460Z,96.73
2018-09-02T16:19:09.790Z,96.60
2018-09-02T16:21:39.632Z,96.18
2018-09-02T16:24:09.513Z,96.44
2018-09-02T16:26:39.568Z,96.39
2018-09-02T16:29:08.384Z,96.01
2018-09-02T16:31:38.324Z,96.63
2018-09-02T16:34:07.894Z,96.60
2018-09-02T16:36:36.952Z,97.50
2018-09-02T16:39:07.355Z,96.96
2018-09-02T16:41:36.469Z,97.47
2018-09-02T16:44:05.586Z,98.15
2018-09-02T16:46:35.392Z,97.67
2018-09-02T16:49:04.348Z,98.35
2018-09-02T16:51:33.282Z,98.45
2018-09-02T16:54:02.563Z,98.63
2018-09-02T16:56:32.816Z,98.31
2018-09-02T16:59:01.670Z,98.76
2018-09-02T17:01:32.982Z,98.71
2018-09-02T17:04:05.308Z,98.26
2018-09-02T17:06:34.149Z,98.79
2018-09-02T17:09:04.217Z,98.37
2018-09-02T17:11:32.940Z,98.62
2018-09-02T17:14:02.132Z,98.27
2018-09-02T17:16:32.336Z,98.33
2018-09-02T17:19:11.591Z,98.60
2018-09-02T17:21:41.889Z,98.15
2018-09-02T17:24:10.739Z,97.85
2018-09-02T17:26:39.954Z,98.16
2018-09-02T17:29:09.294Z,98.37
2018-09-02T17:31:38.731Z,98.16
2018-09-02T17:34:08.618Z,97.53
2018-09-02T17:36:37.847Z,97.15
2018-09-02T17:39:09.501Z,97.15
2018-09-02T17:41:38.423Z,97.68
2018-09-02T17:44:08.556Z,97.40
2018-09-02T17:46:38.406Z,97.30
2018-09-02T17:49:07.992Z,97.30
2018-09-02T17:51:37.216Z,97.19
2018-09-02T17:54:06.363Z,97.10
2018-09-02T17:56:35.668Z,97.59
2018-09-02T17:59:06.791Z,97.66
2018-09-02T18:01:36.436Z,97.34
2018-09-02T18:04:05.469Z,97.25
2018-09-02T18:06:34.286Z,97.58
2018-09-02T18:09:03.802Z,97.77
2018-09-02T18:11:33.137Z,97.18
2018-09-02T18:14:02.888Z,97.68
2018-09-02T18:16:34.208Z,97.89
2018-09-02T18:19:03.867Z,98.23
2018-09-02T18:21:32.912Z,98.46
2018-09-02T18:24:01.979Z,98.88
2018-09-02T18:26:31.281Z,98.76
2018-09-02T18:29:00.643Z,99.14
2018-09-02T18:31:29.845Z,98.98
2018-09-02T18:34:00.138Z,99.24
2018-09-02T18:36:29.325Z,98.98
2018-09-02T18:38:58.116Z,99.23
2018-09-02T18:41:28.501Z,98.84
2018-09-02T18:43:58.653Z,99.27
2018-09-02T18:46:28.037Z,99.04
2018-09-02T18:48:58.171Z,99.22
2018-09-02T18:51:27.363Z,99.54
2018-09-02T18:53:56.570Z,99.35
2018-09-02T18:56:26.377Z,99.08
2018-09-02T18:58:57.098Z,99.34
2018-09-02T19:01:26.368Z,99.28
2018-09-02T19:03:57.362Z,99.58
2018-09-02T19:06:26.546Z,99.20
2018-09-02T19:08:55.627Z,99.55
2018-09-02T19:11:26.088Z,99.15
2018-09-02T19:13:55.377Z,99.32
2018-09-02T19:16:25.105Z,99.41
2018-09-02T19:18:54.435Z,99.67
2018-09-02T19:21:24.826Z,99.29
2018-09-02T19:23:53.821Z,99.79
2018-09-02T19:26:23.593Z,99.81
2018-09-02T19:28:52.938Z,99.84
2018-09-02T19:31:22.704Z,99.96
2018-09-02T19:33:52.424Z,100.00
2018-09-02T19:36:23.487Z,99.97
2018-09-02T19:38:52.408Z,99.92
2018-09-02T19:41:21.752Z,100.00
2018-09-02T19:43:50.789Z,100.00
2018-09-02T19:46:19.922Z,100.00
2018-09-02T19:48:48.840Z,100.00
2018-09-02T19:51:18.380Z,100.00
2018-09-02T19:53:48.427Z,100.00
2018-09-02T19:56:17.813Z,100.00
2018-09-02T19:58:46.814Z,100.00
2018-09-02T20:01:15.808Z,100.00
2018-09-02T20:03:45.318Z,100.00
2018-09-02T20:06:14.561Z,100.00
2018-09-02T20:08:43.823Z,100.00
2018-09-02T20:11:13.039Z,100.00
2018-09-02T20:13:42.224Z,100.00
2018-09-02T20:16:11.326Z,100.00
2018-09-02T20:18:40.187Z,100.00
2018-09-02T20:21:09.043Z,100.00
2018-09-02T20:23:37.765Z,100.00
2018-09-02T20:26:07.567Z,100.00
2018-09-02T20:28:36.650Z,100.00
2018-09-02T20:31:05.941Z,100.00
2018-09-02T20:33:35.642Z,100.00
2018-09-02T20:36:05.395Z,100.00
2018-09-02T20:38:34.384Z,100.00
2018-09-02T20:41:03.814Z,100.00
2018-09-02T20:43:32.724Z,100.00
2018-09-02T20:46:02.247Z,100.00
2018-09-02T20:48:31.418Z,100.00
2018-09-02T20:51:00.743Z,100.00
2018-09-02T20:53:31.797Z,100.00
2018-09-02T20:56:00.774Z,100.00
2018-09-02T20:58:30.449Z,100.00
2018-09-02T21:01:00.160Z,100.00
2018-09-02T21:03:29.627Z,100.00
2018-09-02T21:05:58.917Z,100.00
2018-09-02T21:08:30.216Z,100.00
2018-09-02T21:10:59.238Z,100.00
2018-09-02T21:13:29.388Z,100.00
2018-09-02T21:15:59.697Z,100.00
2018-09-02T21:18:30.862Z,100.00
2018-09-02T21:20:59.825Z,100.00
2018-09-02T21:23:29.035Z,100.00
2018-09-02T21:25:58.503Z,100.00
2018-09-02T21:28:27.643Z,100.00
2018-09-02T21:30:56.767Z,100.00
2018-09-02T21:33:26.681Z,100.00
2018-09-02T21:35:56.032Z,100.00
2018-09-02T21:38:25.678Z,100.00
2018-09-02T21:40:54.787Z,100.00
2018-09-02T21:43:24.009Z,100.00
2018-09-02T21:45:53.016Z,100.00
2018-09-02T21:48:22.037Z,100.00
2018-09-02T21:50:51.694Z,100.00
2018-09-02T21:53:20.768Z,100.00
2018-09-02T21:55:49.903Z,100.00
2018-09-02T21:58:18.946Z,100.00
2018-09-02T22:00:48.588Z,100.00
2018-09-02T22:03:17.888Z,100.00
2018-09-02T22:05:46.742Z,100.00
2018-09-02T22:08:16.154Z,100.00
2018-09-02T22:10:45.535Z,100.00
2018-09-02T22:13:14.804Z,100.00
2018-09-02T22:15:44.717Z,100.00
2018-09-02T22:18:13.692Z,100.00
2018-09-02T22:20:43.225Z,100.00
2018-09-02T22:23:12.741Z,100.00
2018-09-02T22:25:41.892Z,100.00
2018-09-02T22:28:11.473Z,100.00
2018-09-02T22:30:41.422Z,100.00
2018-09-02T22:33:10.333Z,100.00
2018-09-02T22:35:39.288Z,100.00
2018-09-02T22:38:09.393Z,100.00
2018-09-02T22:40:38.963Z,100.00
2018-09-02T22:43:08.128Z,100.00
2018-09-02T22:45:38.263Z,100.00
2018-09-02T22:48:07.815Z,100.00
2018-09-02T22:50:36.903Z,100.00
2018-09-02T22:53:06.008Z,100.00
2018-09-02T22:55:35.264Z,100.00
2018-09-02T22:58:04.686Z,100.00
2018-09-02T23:00:35.288Z,100.00
2018-09-02T23:03:04.570Z,100.00
2018-09-02T23:05:34.264Z,100.00
2018-09-02T23:08:03.749Z,100.00
2018-09-02T23:10:32.617Z,100.00
2018-09-02T23:13:01.475Z,100.00
2018-09-02T23:15:30.134Z,100.00
2018-09-02T23:17:59.974Z,100.00
2018-09-02T23:20:29.123Z,100.00
2018-09-02T23:22:58.884Z,100.00
2018-09-02T23:25:27.818Z,100.00
2018-09-02T23:27:56.559Z,100.00
2018-09-02T23:30:27.430Z,100.00
2018-09-02T23:32:56.479Z,100.00
2018-09-02T23:35:25.633Z,100.00
2018-09-02T23:37:54.588Z,100.00
2018-09-02T23:40:23.263Z,100.00
2018-09-02T23:42:52.635Z,100.00
2018-09-02T23:45:21.649Z,100.00
2018-09-02T23:47:50.840Z,100.00
2018-09-02T23:50:20.308Z,100.00
2018-09-02T23:52:49.348Z,100.00
2018-09-02T23:55:18.568Z,100.00
2018-09-02T23:57:47.810Z,100.00
